sensor_id;sensor_type;location;lat;lon;timestamp;temperature;humidity
35559;DHT22;21661;50.794;-1.066;2022-10-31T00:01:19;14.70;99.90
35559;DHT22;21661;50.794;-1.066;2022-10-31T00:03:45;14.70;99.90
35559;DHT22;21661;50.794;-1.066;2022-10-31T00:06:11;14.90;99.90
35559;DHT22;21661;50.794;-1.066;2022-10-31T00:08:36;14.90;99.90
35559;DHT22;21661;50.794;-1.066;2022-10-31T00:11:02;14.90;99.90
35559;DHT22;21661;50.794;-1.066;2022-10-31T00:13:28;15.00;99.90
35559;DHT22;21661;50.794;-1.066;2022-10-31T00:15:53;15.00;99.90
35559;DHT22;21661;50.794;-1.066;2022-10-31T00:18:19;15.00;99.90
35559;DHT22;21661;50.794;-1.066;2022-10-31T00:20:45;15.00;99.90
35559;DHT22;21661;50.794;-1.066;2022-10-31T00:23:11;15.00;99.90
35559;DHT22;21661;50.794;-1.066;2022-10-31T00:25:38;15.00;99.90
35559;DHT22;21661;50.794;-1.066;2022-10-31T00:28:05;15.00;99.90
35559;DHT22;21661;50.794;-1.066;2022-10-31T00:30:32;15.10;99.90
35559;DHT22;21661;50.794;-1.066;2022-10-31T00:32:58;15.10;99.90
35559;DHT22;21661;50.794;-1.066;2022-10-31T00:35:23;15.10;99.90
35559;DHT22;21661;50.794;-1.066;2022-10-31T00:37:49;15.10;99.90
35559;DHT22;21661;50.794;-1.066;2022-10-31T00:40:15;15.10;99.90
35559;DHT22;21661;50.794;-1.066;2022-10-31T00:42:41;15.00;99.90
35559;DHT22;21661;50.794;-1.066;2022-10-31T00:45:10;15.00;99.90
35559;DHT22;21661;50.794;-1.066;2022-10-31T00:47:36;15.00;99.90
35559;DHT22;21661;50.794;-1.066;2022-10-31T00:50:04;14.90;99.90
35559;DHT22;21661;50.794;-1.066;2022-10-31T00:52:30;14.90;99.90
35559;DHT22;21661;50.794;-1.066;2022-10-31T00:54:55;14.80;99.90
35559;DHT22;21661;50.794;-1.066;2022-10-31T00:57:21;14.80;99.90
35559;DHT22;21661;50.794;-1.066;2022-10-31T00:59:46;14.90;99.90
35559;DHT22;21661;50.794;-1.066;2022-10-31T01:02:12;15.00;99.90
35559;DHT22;21661;50.794;-1.066;2022-10-31T01:04:37;15.00;99.90
35559;DHT22;21661;50.794;-1.066;2022-10-31T01:07:03;15.00;99.90
35559;DHT22;21661;50.794;-1.066;2022-10-31T01:09:28;14.90;99.90
35559;DHT22;21661;50.794;-1.066;2022-10-31T01:11:54;14.90;99.90
35559;DHT22;21661;50.794;-1.066;2022-10-31T01:14:20;14.90;99.90
35559;DHT22;21661;50.794;-1.066;2022-10-31T01:16:45;14.80;99.90
35559;DHT22;21661;50.794;-1.066;2022-10-31T01:19:11;14.80;99.90
35559;DHT22;21661;50.794;-1.066;2022-10-31T01:21:36;14.80;99.90
35559;DHT22;21661;50.794;-1.066;2022-10-31T01:24:02;14.80;99.90
35559;DHT22;21661;50.794;-1.066;2022-10-31T01:26:29;14.80;99.90
35559;DHT22;21661;50.794;-1.066;2022-10-31T01:29:01;14.80;99.90
35559;DHT22;21661;50.794;-1.066;2022-10-31T01:31:29;14.80;99.90
35559;DHT22;21661;50.794;-1.066;2022-10-31T01:33:55;14.80;99.90
35559;DHT22;21661;50.794;-1.066;2022-10-31T01:36:24;14.80;99.90
35559;DHT22;21661;50.794;-1.066;2022-10-31T01:38:51;14.80;99.90
35559;DHT22;21661;50.794;-1.066;2022-10-31T01:41:20;14.80;99.90
35559;DHT22;21661;50.794;-1.066;2022-10-31T01:43:51;14.90;99.90
35559;DHT22;21661;50.794;-1.066;2022-10-31T01:46:22;14.90;99.90
35559;DHT22;21661;50.794;-1.066;2022-10-31T01:48:49;14.90;99.90
35559;DHT22;21661;50.794;-1.066;2022-10-31T01:51:17;15.00;99.90
35559;DHT22;21661;50.794;-1.066;2022-10-31T01:53:45;15.00;99.90
35559;DHT22;21661;50.794;-1.066;2022-10-31T01:56:13;15.00;99.90
35559;DHT22;21661;50.794;-1.066;2022-10-31T01:58:40;15.00;99.90
35559;DHT22;21661;50.794;-1.066;2022-10-31T02:01:07;15.00;99.90
35559;DHT22;21661;50.794;-1.066;2022-10-31T02:03:33;14.90;99.90
35559;DHT22;21661;50.794;-1.066;2022-10-31T02:05:59;14.90;99.90
35559;DHT22;21661;50.794;-1.066;2022-10-31T02:08:30;14.90;99.90
35559;DHT22;21661;50.794;-1.066;2022-10-31T02:11:00;15.00;99.90
35559;DHT22;21661;50.794;-1.066;2022-10-31T02:13:28;15.00;99.90
35559;DHT22;21661;50.794;-1.066;2022-10-31T02:15:56;15.00;99.90
35559;DHT22;21661;50.794;-1.066;2022-10-31T02:18:23;15.00;99.90
35559;DHT22;21661;50.794;-1.066;2022-10-31T02:32:17;15.00;99.90
35559;DHT22;21661;50.794;-1.066;2022-10-31T02:35:21;15.10;99.90
35559;DHT22;21661;50.794;-1.066;2022-10-31T02:37:57;15.10;99.90
35559;DHT22;21661;50.794;-1.066;2022-10-31T02:45:45;15.10;99.90
35559;DHT22;21661;50.794;-1.066;2022-10-31T02:48:19;15.10;99.90
35559;DHT22;21661;50.794;-1.066;2022-10-31T02:51:04;15.10;99.90
35559;DHT22;21661;50.794;-1.066;2022-10-31T02:53:34;15.10;99.90
35559;DHT22;21661;50.794;-1.066;2022-10-31T02:56:16;15.10;99.90
35559;DHT22;21661;50.794;-1.066;2022-10-31T02:58:46;15.20;99.90
35559;DHT22;21661;50.794;-1.066;2022-10-31T03:06:35;15.10;99.90
35559;DHT22;21661;50.794;-1.066;2022-10-31T03:12:14;15.10;99.90
35559;DHT22;21661;50.794;-1.066;2022-10-31T03:14:42;15.10;99.90
35559;DHT22;21661;50.794;-1.066;2022-10-31T03:17:20;15.10;99.90
35559;DHT22;21661;50.794;-1.066;2022-10-31T03:19:49;15.10;99.90
35559;DHT22;21661;50.794;-1.066;2022-10-31T03:22:21;15.10;99.90
35559;DHT22;21661;50.794;-1.066;2022-10-31T03:24:48;15.10;99.90
35559;DHT22;21661;50.794;-1.066;2022-10-31T03:27:19;15.10;99.90
35559;DHT22;21661;50.794;-1.066;2022-10-31T03:29:49;15.10;99.90
35559;DHT22;21661;50.794;-1.066;2022-10-31T03:32:20;15.00;99.90
35559;DHT22;21661;50.794;-1.066;2022-10-31T03:34:47;15.00;99.90
35559;DHT22;21661;50.794;-1.066;2022-10-31T03:37:16;15.00;99.90
35559;DHT22;21661;50.794;-1.066;2022-10-31T03:39:44;15.00;99.90
35559;DHT22;21661;50.794;-1.066;2022-10-31T03:42:17;15.00;99.90
35559;DHT22;21661;50.794;-1.066;2022-10-31T03:44:49;15.00;99.90
35559;DHT22;21661;50.794;-1.066;2022-10-31T03:47:17;15.00;99.90
35559;DHT22;21661;50.794;-1.066;2022-10-31T03:49:43;15.00;99.90
35559;DHT22;21661;50.794;-1.066;2022-10-31T03:52:19;15.00;99.90
35559;DHT22;21661;50.794;-1.066;2022-10-31T03:54:54;15.00;99.90
35559;DHT22;21661;50.794;-1.066;2022-10-31T03:57:23;15.00;99.90
35559;DHT22;21661;50.794;-1.066;2022-10-31T03:59:58;15.00;99.90
35559;DHT22;21661;50.794;-1.066;2022-10-31T04:02:30;15.00;99.90
35559;DHT22;21661;50.794;-1.066;2022-10-31T04:04:56;15.00;99.90
35559;DHT22;21661;50.794;-1.066;2022-10-31T04:07:27;15.00;99.90
35559;DHT22;21661;50.794;-1.066;2022-10-31T04:09:53;15.00;99.90
35559;DHT22;21661;50.794;-1.066;2022-10-31T04:12:20;15.00;99.90
35559;DHT22;21661;50.794;-1.066;2022-10-31T04:14:48;15.00;99.90
35559;DHT22;21661;50.794;-1.066;2022-10-31T04:17:18;15.00;99.90
35559;DHT22;21661;50.794;-1.066;2022-10-31T04:19:46;14.90;99.90
35559;DHT22;21661;50.794;-1.066;2022-10-31T04:22:11;14.90;99.90
35559;DHT22;21661;50.794;-1.066;2022-10-31T04:24:39;14.90;99.90
35559;DHT22;21661;50.794;-1.066;2022-10-31T04:27:04;15.00;99.90
35559;DHT22;21661;50.794;-1.066;2022-10-31T04:29:30;15.00;99.90
35559;DHT22;21661;50.794;-1.066;2022-10-31T04:31:55;15.00;99.90
35559;DHT22;21661;50.794;-1.066;2022-10-31T04:34:21;15.00;99.90
35559;DHT22;21661;50.794;-1.066;2022-10-31T04:36:47;15.00;99.90
35559;DHT22;21661;50.794;-1.066;2022-10-31T04:39:12;15.00;99.90
35559;DHT22;21661;50.794;-1.066;2022-10-31T04:41:38;15.10;99.90
35559;DHT22;21661;50.794;-1.066;2022-10-31T04:44:03;15.00;99.90
35559;DHT22;21661;50.794;-1.066;2022-10-31T04:46:29;15.00;99.90
35559;DHT22;21661;50.794;-1.066;2022-10-31T04:48:55;15.10;99.90
35559;DHT22;21661;50.794;-1.066;2022-10-31T04:51:20;15.10;99.90
35559;DHT22;21661;50.794;-1.066;2022-10-31T04:53:46;15.10;99.90
35559;DHT22;21661;50.794;-1.066;2022-10-31T04:56:11;15.10;99.90
35559;DHT22;21661;50.794;-1.066;2022-10-31T04:58:37;15.00;99.90
35559;DHT22;21661;50.794;-1.066;2022-10-31T05:01:03;15.10;99.90
35559;DHT22;21661;50.794;-1.066;2022-10-31T05:03:28;15.10;99.90
35559;DHT22;21661;50.794;-1.066;2022-10-31T05:05:54;15.00;99.90
35559;DHT22;21661;50.794;-1.066;2022-10-31T05:08:19;15.00;99.90
35559;DHT22;21661;50.794;-1.066;2022-10-31T05:10:45;15.00;99.90
35559;DHT22;21661;50.794;-1.066;2022-10-31T05:13:10;15.00;99.90
35559;DHT22;21661;50.794;-1.066;2022-10-31T05:15:37;15.00;99.90
35559;DHT22;21661;50.794;-1.066;2022-10-31T05:18:03;15.00;99.90
35559;DHT22;21661;50.794;-1.066;2022-10-31T05:20:29;15.00;99.90
35559;DHT22;21661;50.794;-1.066;2022-10-31T05:22:57;15.00;99.90
35559;DHT22;21661;50.794;-1.066;2022-10-31T05:25:24;15.10;99.90
35559;DHT22;21661;50.794;-1.066;2022-10-31T05:27:51;15.00;99.90
35559;DHT22;21661;50.794;-1.066;2022-10-31T05:30:22;15.00;99.90
35559;DHT22;21661;50.794;-1.066;2022-10-31T05:32:50;15.00;99.90
35559;DHT22;21661;50.794;-1.066;2022-10-31T05:35:21;14.90;99.90
35559;DHT22;21661;50.794;-1.066;2022-10-31T05:37:47;14.90;99.90
35559;DHT22;21661;50.794;-1.066;2022-10-31T05:40:14;14.80;99.90
35559;DHT22;21661;50.794;-1.066;2022-10-31T05:42:42;14.90;99.90
35559;DHT22;21661;50.794;-1.066;2022-10-31T05:45:09;14.80;99.90
35559;DHT22;21661;50.794;-1.066;2022-10-31T05:47:35;14.80;99.90
35559;DHT22;21661;50.794;-1.066;2022-10-31T05:50:00;14.80;99.90
35559;DHT22;21661;50.794;-1.066;2022-10-31T05:52:26;14.90;99.90
35559;DHT22;21661;50.794;-1.066;2022-10-31T05:54:52;14.90;99.90
35559;DHT22;21661;50.794;-1.066;2022-10-31T05:57:17;14.90;99.90
35559;DHT22;21661;50.794;-1.066;2022-10-31T05:59:43;14.90;99.90
35559;DHT22;21661;50.794;-1.066;2022-10-31T06:02:08;14.90;99.90
35559;DHT22;21661;50.794;-1.066;2022-10-31T06:04:34;14.80;99.90
35559;DHT22;21661;50.794;-1.066;2022-10-31T06:06:59;14.80;99.90
35559;DHT22;21661;50.794;-1.066;2022-10-31T06:09:25;14.90;99.90
35559;DHT22;21661;50.794;-1.066;2022-10-31T06:11:51;14.90;99.90
35559;DHT22;21661;50.794;-1.066;2022-10-31T06:14:16;14.90;99.90
35559;DHT22;21661;50.794;-1.066;2022-10-31T06:16:42;14.90;99.90
35559;DHT22;21661;50.794;-1.066;2022-10-31T06:19:07;14.90;99.90
35559;DHT22;21661;50.794;-1.066;2022-10-31T06:21:33;14.90;99.90
35559;DHT22;21661;50.794;-1.066;2022-10-31T06:23:58;14.90;99.90
35559;DHT22;21661;50.794;-1.066;2022-10-31T06:26:24;14.90;99.90
35559;DHT22;21661;50.794;-1.066;2022-10-31T06:28:50;14.90;99.90
35559;DHT22;21661;50.794;-1.066;2022-10-31T06:31:15;15.00;99.90
35559;DHT22;21661;50.794;-1.066;2022-10-31T06:33:42;14.90;99.90
35559;DHT22;21661;50.794;-1.066;2022-10-31T06:36:08;14.90;99.90
35559;DHT22;21661;50.794;-1.066;2022-10-31T06:38:34;14.90;99.90
35559;DHT22;21661;50.794;-1.066;2022-10-31T06:41:04;14.90;99.90
35559;DHT22;21661;50.794;-1.066;2022-10-31T06:43:30;14.80;99.90
35559;DHT22;21661;50.794;-1.066;2022-10-31T06:45:57;14.90;99.90
35559;DHT22;21661;50.794;-1.066;2022-10-31T06:48:22;14.90;99.90
35559;DHT22;21661;50.794;-1.066;2022-10-31T06:50:48;14.90;99.90
35559;DHT22;21661;50.794;-1.066;2022-10-31T06:53:14;15.00;99.90
35559;DHT22;21661;50.794;-1.066;2022-10-31T06:55:40;14.90;99.90
35559;DHT22;21661;50.794;-1.066;2022-10-31T06:58:06;14.90;99.90
35559;DHT22;21661;50.794;-1.066;2022-10-31T07:00:32;14.90;99.90
35559;DHT22;21661;50.794;-1.066;2022-10-31T07:03:06;14.90;99.90
35559;DHT22;21661;50.794;-1.066;2022-10-31T07:05:32;14.90;99.90
35559;DHT22;21661;50.794;-1.066;2022-10-31T07:08:00;15.00;99.90
35559;DHT22;21661;50.794;-1.066;2022-10-31T07:10:27;15.00;99.90
35559;DHT22;21661;50.794;-1.066;2022-10-31T07:12:57;15.00;99.90
35559;DHT22;21661;50.794;-1.066;2022-10-31T07:15:24;15.00;99.90
35559;DHT22;21661;50.794;-1.066;2022-10-31T07:17:50;14.90;99.90
35559;DHT22;21661;50.794;-1.066;2022-10-31T07:20:16;14.90;99.90
35559;DHT22;21661;50.794;-1.066;2022-10-31T07:22:41;15.00;99.90
35559;DHT22;21661;50.794;-1.066;2022-10-31T07:25:07;15.00;99.90
35559;DHT22;21661;50.794;-1.066;2022-10-31T07:27:41;15.00;99.90
35559;DHT22;21661;50.794;-1.066;2022-10-31T07:30:08;15.00;99.90
35559;DHT22;21661;50.794;-1.066;2022-10-31T07:32:39;15.00;99.90
35559;DHT22;21661;50.794;-1.066;2022-10-31T07:35:06;15.10;99.90
35559;DHT22;21661;50.794;-1.066;2022-10-31T07:37:31;15.00;99.90
35559;DHT22;21661;50.794;-1.066;2022-10-31T07:39:57;15.00;99.90
35559;DHT22;21661;50.794;-1.066;2022-10-31T07:42:23;15.00;99.90
35559;DHT22;21661;50.794;-1.066;2022-10-31T07:44:48;15.00;99.90
35559;DHT22;21661;50.794;-1.066;2022-10-31T07:47:14;15.00;99.90
35559;DHT22;21661;50.794;-1.066;2022-10-31T07:49:39;14.90;99.90
35559;DHT22;21661;50.794;-1.066;2022-10-31T07:52:05;15.00;99.90
35559;DHT22;21661;50.794;-1.066;2022-10-31T07:54:31;15.00;99.90
35559;DHT22;21661;50.794;-1.066;2022-10-31T07:56:56;15.00;99.90
35559;DHT22;21661;50.794;-1.066;2022-10-31T07:59:22;15.00;99.90
35559;DHT22;21661;50.794;-1.066;2022-10-31T08:01:47;15.00;99.90
35559;DHT22;21661;50.794;-1.066;2022-10-31T08:04:13;15.00;99.90
35559;DHT22;21661;50.794;-1.066;2022-10-31T08:06:38;15.10;99.90
35559;DHT22;21661;50.794;-1.066;2022-10-31T08:09:04;15.10;99.90
35559;DHT22;21661;50.794;-1.066;2022-10-31T08:11:29;15.10;99.90
35559;DHT22;21661;50.794;-1.066;2022-10-31T08:13:55;15.20;99.90
35559;DHT22;21661;50.794;-1.066;2022-10-31T08:16:21;15.20;99.90
35559;DHT22;21661;50.794;-1.066;2022-10-31T08:18:46;15.40;99.90
35559;DHT22;21661;50.794;-1.066;2022-10-31T08:21:13;15.30;99.90
35559;DHT22;21661;50.794;-1.066;2022-10-31T08:23:38;15.40;99.90
35559;DHT22;21661;50.794;-1.066;2022-10-31T08:26:04;15.40;99.90
35559;DHT22;21661;50.794;-1.066;2022-10-31T08:28:31;15.50;99.90
35559;DHT22;21661;50.794;-1.066;2022-10-31T08:30:58;15.50;99.90
35559;DHT22;21661;50.794;-1.066;2022-10-31T08:33:24;15.50;99.90
35559;DHT22;21661;50.794;-1.066;2022-10-31T08:35:49;15.50;99.90
35559;DHT22;21661;50.794;-1.066;2022-10-31T08:38:15;15.50;99.90
35559;DHT22;21661;50.794;-1.066;2022-10-31T08:40:41;15.50;99.90
35559;DHT22;21661;50.794;-1.066;2022-10-31T08:43:14;15.50;99.90
35559;DHT22;21661;50.794;-1.066;2022-10-31T08:45:41;15.50;99.90
35559;DHT22;21661;50.794;-1.066;2022-10-31T08:48:10;15.50;99.90
35559;DHT22;21661;50.794;-1.066;2022-10-31T08:50:37;15.50;99.90
35559;DHT22;21661;50.794;-1.066;2022-10-31T08:53:09;15.60;99.90
35559;DHT22;21661;50.794;-1.066;2022-10-31T08:55:35;15.60;99.90
35559;DHT22;21661;50.794;-1.066;2022-10-31T08:58:02;15.60;99.90
35559;DHT22;21661;50.794;-1.066;2022-10-31T09:00:27;15.60;99.90
35559;DHT22;21661;50.794;-1.066;2022-10-31T09:02:57;15.60;99.90
35559;DHT22;21661;50.794;-1.066;2022-10-31T09:05:24;15.60;99.90
35559;DHT22;21661;50.794;-1.066;2022-10-31T09:07:49;15.60;99.90
35559;DHT22;21661;50.794;-1.066;2022-10-31T09:10:15;15.60;99.90
35559;DHT22;21661;50.794;-1.066;2022-10-31T09:12:41;15.60;99.90
35559;DHT22;21661;50.794;-1.066;2022-10-31T09:15:07;15.70;99.90
35559;DHT22;21661;50.794;-1.066;2022-10-31T09:17:33;15.80;99.90
35559;DHT22;21661;50.794;-1.066;2022-10-31T09:19:58;15.90;99.90
35559;DHT22;21661;50.794;-1.066;2022-10-31T09:22:24;16.00;99.90
35559;DHT22;21661;50.794;-1.066;2022-10-31T09:24:49;16.00;99.90
35559;DHT22;21661;50.794;-1.066;2022-10-31T09:27:15;16.00;99.90
35559;DHT22;21661;50.794;-1.066;2022-10-31T09:29:41;16.00;99.90
35559;DHT22;21661;50.794;-1.066;2022-10-31T09:32:06;16.00;99.90
35559;DHT22;21661;50.794;-1.066;2022-10-31T09:34:32;16.00;99.90
35559;DHT22;21661;50.794;-1.066;2022-10-31T09:36:57;16.00;99.90
35559;DHT22;21661;50.794;-1.066;2022-10-31T09:39:23;16.00;99.90
35559;DHT22;21661;50.794;-1.066;2022-10-31T09:41:55;16.10;99.90
35559;DHT22;21661;50.794;-1.066;2022-10-31T09:44:32;16.10;99.90
35559;DHT22;21661;50.794;-1.066;2022-10-31T09:47:25;16.10;99.90
35559;DHT22;21661;50.794;-1.066;2022-10-31T09:52:43;16.10;99.90
35559;DHT22;21661;50.794;-1.066;2022-10-31T09:57:42;16.20;99.90
35559;DHT22;21661;50.794;-1.066;2022-10-31T10:00:16;16.30;99.90
35559;DHT22;21661;50.794;-1.066;2022-10-31T10:03:35;16.40;99.90
35559;DHT22;21661;50.794;-1.066;2022-10-31T10:06:11;16.50;99.90
35559;DHT22;21661;50.794;-1.066;2022-10-31T10:08:39;16.50;99.90
35559;DHT22;21661;50.794;-1.066;2022-10-31T10:19:35;16.90;99.90
35559;DHT22;21661;50.794;-1.066;2022-10-31T10:22:08;16.90;99.90
35559;DHT22;21661;50.794;-1.066;2022-10-31T10:27:30;17.10;99.90
35559;DHT22;21661;50.794;-1.066;2022-10-31T10:30:14;17.10;99.90
35559;DHT22;21661;50.794;-1.066;2022-10-31T10:32:50;17.00;99.90
35559;DHT22;21661;50.794;-1.066;2022-10-31T10:37:46;17.00;99.90
35559;DHT22;21661;50.794;-1.066;2022-10-31T10:40:17;17.00;99.90
35559;DHT22;21661;50.794;-1.066;2022-10-31T10:43:32;17.00;99.90
35559;DHT22;21661;50.794;-1.066;2022-10-31T10:51:47;17.00;99.90
35559;DHT22;21661;50.794;-1.066;2022-10-31T10:57:17;17.10;99.90
35559;DHT22;21661;50.794;-1.066;2022-10-31T10:59:46;17.10;99.90
35559;DHT22;21661;50.794;-1.066;2022-10-31T11:02:24;17.20;99.90
35559;DHT22;21661;50.794;-1.066;2022-10-31T11:04:53;17.10;99.90
35559;DHT22;21661;50.794;-1.066;2022-10-31T11:07:19;16.90;99.90
35559;DHT22;21661;50.794;-1.066;2022-10-31T11:09:44;17.00;99.90
35559;DHT22;21661;50.794;-1.066;2022-10-31T11:14:52;17.00;99.90
35559;DHT22;21661;50.794;-1.066;2022-10-31T11:17:29;17.00;99.90
35559;DHT22;21661;50.794;-1.066;2022-10-31T11:20:03;17.10;99.90
35559;DHT22;21661;50.794;-1.066;2022-10-31T11:22:29;17.10;99.90
35559;DHT22;21661;50.794;-1.066;2022-10-31T11:24:55;17.10;99.90
35559;DHT22;21661;50.794;-1.066;2022-10-31T11:27:23;17.10;99.90
35559;DHT22;21661;50.794;-1.066;2022-10-31T11:29:49;17.10;99.90
35559;DHT22;21661;50.794;-1.066;2022-10-31T11:32:21;17.10;99.90
35559;DHT22;21661;50.794;-1.066;2022-10-31T11:34:51;17.00;99.90
35559;DHT22;21661;50.794;-1.066;2022-10-31T11:37:23;16.90;99.90
35559;DHT22;21661;50.794;-1.066;2022-10-31T11:39:53;16.90;99.90
35559;DHT22;21661;50.794;-1.066;2022-10-31T11:42:22;16.90;99.90
35559;DHT22;21661;50.794;-1.066;2022-10-31T11:44:50;17.00;99.90
35559;DHT22;21661;50.794;-1.066;2022-10-31T11:47:26;17.00;99.90
35559;DHT22;21661;50.794;-1.066;2022-10-31T11:49:53;17.00;99.90
35559;DHT22;21661;50.794;-1.066;2022-10-31T11:52:31;17.10;99.90
35559;DHT22;21661;50.794;-1.066;2022-10-31T11:57:49;17.10;99.90
35559;DHT22;21661;50.794;-1.066;2022-10-31T12:00:37;17.10;99.90
35559;DHT22;21661;50.794;-1.066;2022-10-31T12:05:42;17.20;99.90
35559;DHT22;21661;50.794;-1.066;2022-10-31T12:08:11;17.30;99.90
35559;DHT22;21661;50.794;-1.066;2022-10-31T12:16:12;17.30;99.90
35559;DHT22;21661;50.794;-1.066;2022-10-31T12:18:46;17.40;99.90
35559;DHT22;21661;50.794;-1.066;2022-10-31T12:38:10;17.50;99.90
35559;DHT22;21661;50.794;-1.066;2022-10-31T12:40:42;17.50;99.90
35559;DHT22;21661;50.794;-1.066;2022-10-31T12:43:34;17.50;99.90
35559;DHT22;21661;50.794;-1.066;2022-10-31T12:46:03;17.50;99.90
35559;DHT22;21661;50.794;-1.066;2022-10-31T12:56:57;17.20;99.90
35559;DHT22;21661;50.794;-1.066;2022-10-31T12:59:39;17.10;99.90
35559;DHT22;21661;50.794;-1.066;2022-10-31T13:05:40;17.00;99.90
35559;DHT22;21661;50.794;-1.066;2022-10-31T13:08:07;17.00;99.90
35559;DHT22;21661;50.794;-1.066;2022-10-31T13:13:27;17.00;99.90
35559;DHT22;21661;50.794;-1.066;2022-10-31T13:16:20;16.90;99.90
35559;DHT22;21661;50.794;-1.066;2022-10-31T13:18:53;16.90;99.90
35559;DHT22;21661;50.794;-1.066;2022-10-31T13:21:26;16.90;99.90
35559;DHT22;21661;50.794;-1.066;2022-10-31T13:23:52;16.80;99.90
35559;DHT22;21661;50.794;-1.066;2022-10-31T13:29:23;16.80;99.90
35559;DHT22;21661;50.794;-1.066;2022-10-31T13:31:50;16.70;99.90
35559;DHT22;21661;50.794;-1.066;2022-10-31T13:42:49;16.60;99.90
35559;DHT22;21661;50.794;-1.066;2022-10-31T13:45:19;16.60;99.90
35559;DHT22;21661;50.794;-1.066;2022-10-31T13:48:00;16.50;99.90
35559;DHT22;21661;50.794;-1.066;2022-10-31T13:50:31;16.50;99.90
35559;DHT22;21661;50.794;-1.066;2022-10-31T13:55:47;16.50;99.90
35559;DHT22;21661;50.794;-1.066;2022-10-31T13:58:28;16.40;99.90
35559;DHT22;21661;50.794;-1.066;2022-10-31T14:03:36;16.50;99.90
35559;DHT22;21661;50.794;-1.066;2022-10-31T14:06:03;16.60;99.90
35559;DHT22;21661;50.794;-1.066;2022-10-31T14:08:33;16.60;99.90
35559;DHT22;21661;50.794;-1.066;2022-10-31T14:10:59;16.50;99.90
35559;DHT22;21661;50.794;-1.066;2022-10-31T14:13:31;16.50;99.90
35559;DHT22;21661;50.794;-1.066;2022-10-31T14:16:03;16.50;99.90
35559;DHT22;21661;50.794;-1.066;2022-10-31T14:18:50;16.40;99.90
35559;DHT22;21661;50.794;-1.066;2022-10-31T14:23:48;16.30;99.90
35559;DHT22;21661;50.794;-1.066;2022-10-31T14:28:52;16.30;99.90
35559;DHT22;21661;50.794;-1.066;2022-10-31T14:31:37;16.20;99.90
35559;DHT22;21661;50.794;-1.066;2022-10-31T14:34:20;16.20;99.90
35559;DHT22;21661;50.794;-1.066;2022-10-31T14:37:01;16.20;99.90
35559;DHT22;21661;50.794;-1.066;2022-10-31T14:45:31;16.20;99.90
35559;DHT22;21661;50.794;-1.066;2022-10-31T14:50:52;16.20;99.90
35559;DHT22;21661;50.794;-1.066;2022-10-31T14:55:52;16.10;99.90
35559;DHT22;21661;50.794;-1.066;2022-10-31T14:58:28;16.00;99.90
35559;DHT22;21661;50.794;-1.066;2022-10-31T15:00:57;16.00;99.90
35559;DHT22;21661;50.794;-1.066;2022-10-31T15:06:02;16.00;99.90
35559;DHT22;21661;50.794;-1.066;2022-10-31T15:08:37;15.90;99.90
35559;DHT22;21661;50.794;-1.066;2022-10-31T15:11:09;15.90;99.90
35559;DHT22;21661;50.794;-1.066;2022-10-31T15:13:48;15.90;99.90
35559;DHT22;21661;50.794;-1.066;2022-10-31T15:16:26;15.90;99.90
35559;DHT22;21661;50.794;-1.066;2022-10-31T15:18:58;15.80;99.90
35559;DHT22;21661;50.794;-1.066;2022-10-31T15:21:26;15.80;99.90
35559;DHT22;21661;50.794;-1.066;2022-10-31T15:23:55;15.70;99.90
35559;DHT22;21661;50.794;-1.066;2022-10-31T15:26:22;15.70;99.90
35559;DHT22;21661;50.794;-1.066;2022-10-31T15:29:03;15.70;99.90
35559;DHT22;21661;50.794;-1.066;2022-10-31T15:31:29;15.60;99.90
35559;DHT22;21661;50.794;-1.066;2022-10-31T15:34:00;15.60;99.90
35559;DHT22;21661;50.794;-1.066;2022-10-31T15:36:27;15.60;99.90
35559;DHT22;21661;50.794;-1.066;2022-10-31T15:38:55;15.60;99.90
35559;DHT22;21661;50.794;-1.066;2022-10-31T15:41:30;15.60;99.90
35559;DHT22;21661;50.794;-1.066;2022-10-31T15:44:02;15.50;99.90
35559;DHT22;21661;50.794;-1.066;2022-10-31T15:46:28;15.50;99.90
35559;DHT22;21661;50.794;-1.066;2022-10-31T15:48:55;15.50;99.90
35559;DHT22;21661;50.794;-1.066;2022-10-31T15:51:31;15.50;99.90
35559;DHT22;21661;50.794;-1.066;2022-10-31T15:53:58;15.40;99.90
35559;DHT22;21661;50.794;-1.066;2022-10-31T15:56:28;15.50;99.90
35559;DHT22;21661;50.794;-1.066;2022-10-31T15:58:57;15.50;99.90
35559;DHT22;21661;50.794;-1.066;2022-10-31T16:01:31;15.40;99.90
35559;DHT22;21661;50.794;-1.066;2022-10-31T16:04:23;15.50;99.90
35559;DHT22;21661;50.794;-1.066;2022-10-31T16:07:14;15.50;99.90
35559;DHT22;21661;50.794;-1.066;2022-10-31T16:09:50;15.50;99.90
35559;DHT22;21661;50.794;-1.066;2022-10-31T16:12:16;15.50;99.90
35559;DHT22;21661;50.794;-1.066;2022-10-31T16:14:42;15.50;99.90
35559;DHT22;21661;50.794;-1.066;2022-10-31T16:17:15;15.50;99.90
35559;DHT22;21661;50.794;-1.066;2022-10-31T16:20:02;15.50;99.90
35559;DHT22;21661;50.794;-1.066;2022-10-31T16:22:31;15.50;99.90
35559;DHT22;21661;50.794;-1.066;2022-10-31T16:27:33;15.50;99.90
35559;DHT22;21661;50.794;-1.066;2022-10-31T16:30:00;15.50;99.90
35559;DHT22;21661;50.794;-1.066;2022-10-31T16:35:34;15.50;99.90
35559;DHT22;21661;50.794;-1.066;2022-10-31T16:38:00;15.50;99.90
35559;DHT22;21661;50.794;-1.066;2022-10-31T16:40:26;15.60;99.90
35559;DHT22;21661;50.794;-1.066;2022-10-31T16:42:52;15.60;99.90
35559;DHT22;21661;50.794;-1.066;2022-10-31T16:45:23;15.70;99.90
35559;DHT22;21661;50.794;-1.066;2022-10-31T16:47:50;15.60;99.90
35559;DHT22;21661;50.794;-1.066;2022-10-31T16:50:24;15.60;99.90
35559;DHT22;21661;50.794;-1.066;2022-10-31T16:52:50;15.70;99.90
35559;DHT22;21661;50.794;-1.066;2022-10-31T16:55:17;15.70;99.90
35559;DHT22;21661;50.794;-1.066;2022-10-31T16:57:48;15.80;99.90
35559;DHT22;21661;50.794;-1.066;2022-10-31T17:00:19;15.80;99.90
35559;DHT22;21661;50.794;-1.066;2022-10-31T17:02:47;15.90;99.90
35559;DHT22;21661;50.794;-1.066;2022-10-31T17:05:15;15.90;99.90
35559;DHT22;21661;50.794;-1.066;2022-10-31T17:07:42;15.90;99.90
35559;DHT22;21661;50.794;-1.066;2022-10-31T17:10:08;16.00;99.90
35559;DHT22;21661;50.794;-1.066;2022-10-31T17:12:35;16.00;99.90
35559;DHT22;21661;50.794;-1.066;2022-10-31T17:15:01;16.10;99.90
35559;DHT22;21661;50.794;-1.066;2022-10-31T17:17:27;16.20;99.90
35559;DHT22;21661;50.794;-1.066;2022-10-31T17:19:53;16.20;99.90
35559;DHT22;21661;50.794;-1.066;2022-10-31T17:22:18;16.20;99.90
35559;DHT22;21661;50.794;-1.066;2022-10-31T17:24:44;16.20;99.90
35559;DHT22;21661;50.794;-1.066;2022-10-31T17:27:09;16.30;99.90
35559;DHT22;21661;50.794;-1.066;2022-10-31T17:29:35;16.30;99.90
35559;DHT22;21661;50.794;-1.066;2022-10-31T17:32:01;16.40;99.90
35559;DHT22;21661;50.794;-1.066;2022-10-31T17:34:28;16.40;99.90
35559;DHT22;21661;50.794;-1.066;2022-10-31T17:36:54;16.40;99.90
35559;DHT22;21661;50.794;-1.066;2022-10-31T17:39:20;16.50;99.90
35559;DHT22;21661;50.794;-1.066;2022-10-31T17:41:48;16.40;99.90
35559;DHT22;21661;50.794;-1.066;2022-10-31T17:44:14;16.40;99.90
35559;DHT22;21661;50.794;-1.066;2022-10-31T17:46:40;16.40;99.90